Time;durP1;ratioP1;P1;durP2;ratioP2;P2;SDS_P1;SDS_P2;PMS_P1;PMS_P2;Temp;Humidity;BMP_temperature;BMP_pressure;BME280_temperature;BME280_humidity;BME280_pressure;Samples;Min_cycle;Max_cycle;Signal;HPM_P1;HPM_P2
2022/09/02 00:02:58;;;;;;;5.30;1.90;;;;;;;8.50;100.00;97088.75;10410163;28;20197;-73
2022/09/02 00:07:59;;;;;;;2.43;1.90;;;;;;;8.46;100.00;97091.75;10410758;28;20311;-73
2022/09/02 00:12:59;;;;;;;5.93;2.43;;;;;;;8.46;100.00;97073.47;10410583;28;20203;-73
2022/09/02 00:18:00;;;;;;;3.83;2.20;;;;;;;8.41;100.00;97073.84;10410129;28;20185;-73
2022/09/02 00:23:01;;;;;;;1.97;1.70;;;;;;;8.41;100.00;97068.63;10410771;28;20189;-73
2022/09/02 00:28:02;;;;;;;2.77;1.97;;;;;;;8.37;100.00;97069.84;10410072;28;20304;-73
2022/09/02 00:33:04;;;;;;;4.77;2.00;;;;;;;8.31;100.00;97065.16;10410495;28;20188;-73
2022/09/02 00:38:05;;;;;;;3.13;2.10;;;;;;;8.24;100.00;97071.88;10409386;28;20291;-73
2022/09/02 00:43:07;;;;;;;2.10;1.90;;;;;;;8.13;100.00;97057.13;10410319;28;20197;-73
2022/09/02 00:48:07;;;;;;;2.43;2.23;;;;;;;8.08;100.00;97056.72;10409359;28;20779;-72
2022/09/02 00:53:11;;;;;;;2.60;2.20;;;;;;;8.09;100.00;97048.75;10409252;28;20199;-73
2022/09/02 00:58:32;;;;;;;5.87;2.00;;;;;;;7.98;100.00;97057.50;10391303;28;20319;-72
2022/09/02 01:03:32;;;;;;;4.97;2.60;;;;;;;8.01;100.00;97064.25;10407663;28;20234;-72
2022/09/02 01:08:34;;;;;;;2.73;2.10;;;;;;;7.99;100.00;97063.53;10389417;28;20232;-72
2022/09/02 01:13:39;;;;;;;4.07;2.10;;;;;;;7.89;100.00;97068.72;10373349;28;20361;-72
2022/09/02 01:18:43;;;;;;;3.80;2.20;;;;;;;7.85;100.00;97067.34;10389119;28;20185;-72
2022/09/02 01:23:44;;;;;;;3.10;1.87;;;;;;;7.83;100.00;97067.47;10388223;28;20231;-72
2022/09/02 01:28:45;;;;;;;3.53;2.40;;;;;;;7.74;100.00;97060.41;10389075;28;20696;-73
2022/09/02 01:33:46;;;;;;;3.30;2.40;;;;;;;7.71;100.00;97057.25;10390241;28;20188;-72
2022/09/02 01:38:46;;;;;;;3.47;2.37;;;;;;;7.66;100.00;97052.44;10408079;28;20668;-72
2022/09/02 01:43:46;;;;;;;4.50;2.47;;;;;;;7.62;100.00;97046.63;10407315;28;20283;-72
2022/09/02 01:48:47;;;;;;;5.03;2.43;;;;;;;7.62;100.00;97056.25;10407725;28;20228;-72
2022/09/02 01:53:48;;;;;;;2.40;1.90;;;;;;;7.61;100.00;97049.38;10407385;28;20212;-72
2022/09/02 01:58:48;;;;;;;1.73;1.63;;;;;;;7.56;100.00;97044.53;10390396;28;20232;-72
2022/09/02 02:03:49;;;;;;;5.53;2.23;;;;;;;7.56;100.00;97035.91;10390191;28;20578;-72
2022/09/02 02:08:51;;;;;;;3.00;2.03;;;;;;;7.49;100.00;97040.81;10389892;28;20220;-72
2022/09/02 02:13:52;;;;;;;8.07;2.50;;;;;;;7.49;100.00;97046.84;10389249;28;20185;-72
2022/09/02 02:18:55;;;;;;;4.43;3.17;;;;;;;7.52;100.00;97039.72;10407961;28;20739;-72
2022/09/02 02:23:56;;;;;;;2.37;1.90;;;;;;;7.44;100.00;97043.81;10406321;28;20275;-72
2022/09/02 02:28:56;;;;;;;3.47;2.50;;;;;;;7.38;100.00;97030.44;10389763;28;20213;-72
2022/09/02 02:33:56;;;;;;;3.30;2.10;;;;;;;7.34;100.00;97044.72;10378908;28;20712;-72
2022/09/02 02:38:57;;;;;;;3.50;2.20;;;;;;;7.21;100.00;97032.69;10414520;28;20181;-72
2022/09/02 02:43:58;;;;;;;2.83;2.20;;;;;;;7.21;100.00;97037.88;10413930;28;20188;-72
2022/09/02 02:48:59;;;;;;;3.87;2.70;;;;;;;7.17;100.00;97033.91;10379605;28;20216;-72
2022/09/02 02:54:00;;;;;;;2.53;2.33;;;;;;;7.10;100.00;97037.97;10394715;28;20351;-72
2022/09/02 02:59:02;;;;;;;3.63;2.13;;;;;;;7.16;100.00;97039.25;10413394;28;20592;-72
2022/09/02 03:04:04;;;;;;;2.00;1.73;;;;;;;7.17;100.00;97035.66;10375225;28;20188;-72
2022/09/02 03:09:05;;;;;;;2.77;2.20;;;;;;;7.14;100.00;97031.56;10388863;28;20220;-72
2022/09/02 03:14:07;;;;;;;3.27;2.07;;;;;;;7.13;100.00;97030.72;10371783;28;20714;-72
2022/09/02 03:19:08;;;;;;;4.87;2.17;;;;;;;7.11;100.00;97037.84;10387918;28;20176;-72
2022/09/02 03:24:10;;;;;;;2.67;1.80;;;;;;;7.10;100.00;97030.16;10387312;28;20196;-72
2022/09/02 03:29:11;;;;;;;2.87;2.00;;;;;;;7.03;100.00;97037.66;10387510;28;20586;-72
2022/09/02 03:34:12;;;;;;;2.87;2.20;;;;;;;7.05;100.00;97033.13;10370200;28;20515;-72
2022/09/02 03:39:13;;;;;;;2.77;2.10;;;;;;;7.09;100.00;97025.88;10387340;28;20645;-72
2022/09/02 03:44:16;;;;;;;2.63;1.70;;;;;;;7.00;100.00;97024.88;10370439;28;20188;-72
2022/09/02 03:49:18;;;;;;;3.10;2.00;;;;;;;6.95;100.00;97027.88;10386594;28;20220;-72
2022/09/02 03:54:18;;;;;;;2.63;1.80;;;;;;;6.97;100.00;97019.94;10403756;28;20188;-72
2022/09/02 03:59:18;;;;;;;4.00;2.10;;;;;;;6.89;100.00;97020.56;10386928;28;20217;-72
2022/09/02 04:04:19;;;;;;;2.77;1.87;;;;;;;6.86;100.00;97022.56;10417335;28;20192;-72
2022/09/02 04:09:22;;;;;;;5.00;1.80;;;;;;;6.80;100.00;97018.72;10425768;28;20216;-71
2022/09/02 04:14:23;;;;;;;2.13;1.80;;;;;;;6.79;100.00;97020.47;10424244;28;20287;-72
2022/09/02 04:19:23;;;;;;;4.53;2.10;;;;;;;6.79;100.00;97027.47;10420914;28;20568;-72
2022/09/02 04:24:24;;;;;;;3.90;2.10;;;;;;;6.81;100.00;97024.72;10432191;28;20180;-72
2022/09/02 04:29:25;;;;;;;4.43;1.80;;;;;;;6.79;100.00;97022.25;10393080;28;20220;-72
2022/09/02 04:34:26;;;;;;;2.00;1.80;;;;;;;6.80;100.00;97029.13;10392011;28;20742;-72
2022/09/02 04:39:26;;;;;;;3.10;2.07;;;;;;;6.85;100.00;97021.75;10392706;28;20244;-72
2022/09/02 04:44:27;;;;;;;2.30;2.10;;;;;;;6.86;100.00;97018.19;10391845;28;20610;-72
2022/09/02 04:49:30;;;;;;;1.80;1.60;;;;;;;6.91;100.00;97018.66;10409810;28;20211;-72
2022/09/02 04:54:31;;;;;;;8.60;2.20;;;;;;;6.97;100.00;97025.94;10390506;28;20311;-72
2022/09/02 04:59:35;;;;;;;3.97;2.00;;;;;;;6.94;100.00;97015.78;10375718;28;20626;-72
2022/09/02 05:04:43;;;;;;;4.53;1.90;;;;;;;7.06;100.00;97013.09;10390844;28;20192;-72
2022/09/02 05:09:56;;;;;;;2.10;1.77;;;;;;;7.03;100.00;97015.97;10376517;28;20211;-72
2022/09/02 05:14:59;;;;;;;2.73;2.10;;;;;;;7.04;100.00;97020.22;10390550;28;20207;-72
2022/09/02 05:20:04;;;;;;;2.97;1.80;;;;;;;7.18;100.00;97021.69;10391283;28;20234;-72
2022/09/02 05:25:08;;;;;;;5.40;1.80;;;;;;;7.52;100.00;97019.72;10390754;28;20219;-72
2022/09/02 05:30:09;;;;;;;2.47;2.00;;;;;;;7.89;100.00;97011.34;10391404;28;20189;-72
2022/09/02 05:35:10;;;;;;;4.30;1.73;;;;;;;8.43;100.00;97009.25;10390254;28;20673;-72
2022/09/02 05:40:11;;;;;;;1.73;1.63;;;;;;;8.91;100.00;96987.59;10389449;28;20676;-72
2022/09/02 05:45:12;;;;;;;2.20;1.40;;;;;;;9.75;100.00;96978.13;10373126;28;20209;-72
2022/09/02 05:50:13;;;;;;;1.60;1.37;;;;;;;10.24;100.00;96977.84;10410378;28;20247;-72
2022/09/02 05:55:14;;;;;;;1.30;1.20;;;;;;;10.83;100.00;96962.56;10389414;28;20612;-72
2022/09/02 06:00:16;;;;;;;5.22;1.30;;;;;;;10.94;100.00;96963.31;10423337;28;20199;-72
2022/09/02 06:05:21;;;;;;;3.67;1.10;;;;;;;11.55;100.00;96964.19;10390159;28;20223;-72
2022/09/02 06:10:28;;;;;;;2.60;1.38;;;;;;;11.91;100.00;96964.00;10395054;28;20187;-72
2022/09/02 06:15:29;;;;;;;2.55;1.27;;;;;;;12.68;100.00;96942.84;10396652;28;20604;-72
2022/09/02 06:20:32;;;;;;;1.60;1.10;;;;;;;12.80;100.00;96941.53;10397335;28;20272;-72
2022/09/02 06:25:38;;;;;;;3.70;1.02;;;;;;;13.50;100.00;96942.75;10429532;28;20228;-72
2022/09/02 06:30:42;;;;;;;1.70;0.93;;;;;;;14.08;97.04;96924.06;10397645;28;20279;-72
2022/09/02 06:35:45;;;;;;;1.42;1.20;;;;;;;14.23;96.04;96926.78;10428574;28;20200;-72
2022/09/02 06:40:53;;;;;;;5.03;0.80;;;;;;;15.25;91.05;96905.38;10395306;28;20229;-72
2022/09/02 06:46:00;;;;;;;2.22;1.27;;;;;;;16.05;85.18;96887.91;10394763;28;20219;-72
2022/09/02 06:51:01;;;;;;;3.92;1.35;;;;;;;16.10;83.11;96875.97;10412741;28;20531;-72
2022/09/02 06:56:06;;;;;;;4.25;1.23;;;;;;;16.97;80.69;96884.69;10420347;28;20351;-72
2022/09/02 07:01:07;;;;;;;3.22;1.20;;;;;;;17.26;76.41;96854.56;10400823;28;20215;-72
2022/09/02 07:06:10;;;;;;;1.42;1.10;;;;;;;16.90;72.96;96829.06;10418360;28;20302;-71
2022/09/02 07:11:22;;;;;;;1.35;1.00;;;;;;;17.58;71.30;96817.81;10434444;28;20590;-73
2022/09/02 07:16:25;;;;;;;1.95;0.90;;;;;;;17.68;63.71;96727.38;10451100;28;20184;-72
2022/09/02 07:21:30;;;;;;;1.08;0.65;;;;;;;17.74;65.59;96776.91;10420005;28;20681;-72
2022/09/02 07:26:30;;;;;;;0.77;0.60;;;;;;;18.27;60.67;96710.72;10405583;28;20781;-72
2022/09/02 07:31:31;;;;;;;1.92;0.80;;;;;;;18.30;60.18;96720.06;10391512;28;20279;-72
2022/09/02 07:36:33;;;;;;;0.90;0.70;;;;;;;17.20;62.21;96744.94;10410121;28;20207;-72
2022/09/02 07:41:35;;;;;;;1.13;0.60;;;;;;;18.09;58.99;96723.78;10415977;28;20725;-72
2022/09/02 07:46:36;;;;;;;1.48;0.60;;;;;;;18.65;57.10;96704.75;10390799;28;20568;-72
2022/09/02 07:51:42;;;;;;;1.88;0.52;;;;;;;20.19;55.23;96711.94;10372948;28;20282;-72
2022/09/02 07:56:43;;;;;;;0.43;0.43;;;;;;;21.07;50.83;96647.97;10392746;28;20307;-72
2022/09/02 08:01:44;;;;;;;2.17;0.80;;;;;;;20.10;51.90;96662.69;10351479;28;20665;-71
2022/09/02 08:06:45;;;;;;;1.20;0.60;;;;;;;20.03;51.67;96660.13;10347207;28;20787;-72
2022/09/02 08:11:48;;;;;;;1.08;0.73;;;;;;;18.95;54.94;96709.56;10363350;28;20204;-72
2022/09/02 08:16:49;;;;;;;2.28;0.88;;;;;;;19.47;55.16;96732.66;10346425;28;20192;-72
2022/09/02 08:21:50;;;;;;;3.65;0.77;;;;;;;18.81;51.24;96629.13;10365459;28;20654;-72
2022/09/02 08:26:50;;;;;;;2.63;0.60;;;;;;;19.03;55.66;96735.06;10363999;28;20213;-72
2022/09/02 08:31:50;;;;;;;3.03;0.65;;;;;;;20.36;52.06;96695.41;10364500;28;20283;-73
2022/09/02 08:36:51;;;;;;;1.58;0.70;;;;;;;20.93;52.53;96717.38;10362992;28;20224;-72
2022/09/02 08:42:06;;;;;;;1.00;0.60;;;;;;;20.94;47.46;96612.47;10358508;28;20204;-72
2022/09/02 08:47:13;;;;;;;4.00;0.55;;;;;;;20.86;48.77;96642.09;10342196;28;20220;-72
2022/09/02 08:52:24;;;;;;;1.15;0.70;;;;;;;19.18;50.56;96634.69;10366694;28;20203;-72
2022/09/02 08:57:25;;;;;;;1.33;0.50;;;;;;;19.36;51.92;96683.66;10385484;28;20232;-72
2022/09/02 09:02:39;;;;;;;2.20;0.80;;;;;;;19.89;53.46;96728.53;10405770;28;20712;-72
2022/09/02 09:07:58;;;;;;;1.17;0.80;;;;;;;20.79;49.58;96657.31;10406146;28;20579;-72
2022/09/02 09:13:17;;;;;;;2.55;0.63;;;;;;;21.31;50.25;96692.31;10387841;28;20200;-72
2022/09/02 09:18:20;;;;;;;1.30;0.82;;;;;;;22.35;45.17;96607.66;10403290;28;20648;-72
2022/09/02 09:23:32;;;;;;;2.78;0.73;;;;;;;20.39;50.05;96661.19;10406403;28;20269;-72
2022/09/02 09:28:41;;;;;;;1.20;0.70;;;;;;;21.20;51.76;96722.41;10366428;28;20682;-73
2022/09/02 09:34:01;;;;;;;3.05;1.70;;;;;;;22.04;46.14;96618.44;10381405;28;20282;-72
2022/09/02 09:39:19;;;;;;;1.17;0.65;;;;;;;22.22;42.90;96552.63;10367571;28;20192;-72
2022/09/02 09:44:44;;;;;;;6.47;0.75;;;;;;;21.13;46.31;96615.94;10412092;28;20664;-72
2022/09/02 09:49:50;;;;;;;4.88;0.50;;;;;;;19.10;49.87;96628.84;10411145;28;20625;-72
2022/09/02 09:55:20;;;;;;;4.80;0.75;;;;;;;18.51;53.24;96703.94;10393174;28;20189;-71
2022/09/02 10:00:31;;;;;;;4.65;2.03;;;;;;;18.50;53.51;96704.97;10410596;28;20324;-72
2022/09/02 10:05:37;;;;;;;4.32;0.70;;;;;;;20.11;48.83;96627.09;10410276;28;20321;-71
2022/09/02 10:10:37;;;;;;;1.20;0.68;;;;;;;20.43;47.82;96611.84;10410158;28;20216;-72
2022/09/02 10:16:10;;;;;;;0.47;0.43;;;;;;;19.10;50.74;96644.78;10394250;28;20243;-72
2022/09/02 10:21:31;;;;;;;0.55;0.50;;;;;;;18.29;51.50;96649.50;10413355;28;20298;-71
2022/09/02 10:26:47;;;;;;;0.63;0.63;;;;;;;18.23;50.24;96619.31;10394899;28;20226;-71
2022/09/02 10:32:16;;;;;;;3.80;0.70;;;;;;;18.17;52.88;96673.19;10394654;28;20266;-72
2022/09/02 10:37:22;;;;;;;0.50;0.50;;;;;;;18.57;51.43;96641.25;10411590;28;20220;-71
2022/09/02 10:42:58;;;;;;;0.50;0.50;;;;;;;19.20;49.57;96616.72;10392434;28;20200;-71
2022/09/02 10:48:08;;;;;;;1.63;0.60;;;;;;;19.37;49.50;96613.53;10410829;28;20776;-71
2022/09/02 10:53:27;;;;;;;0.65;0.65;;;;;;;19.42;48.88;96597.78;10392526;28;20196;-72
2022/09/02 10:58:43;;;;;;;1.25;0.52;;;;;;;19.85;48.82;96605.03;10393846;28;20723;-72
2022/09/02 11:03:56;;;;;;;0.55;0.55;;;;;;;19.88;50.10;96628.53;10392794;28;20199;-71
2022/09/02 11:09:32;;;;;;;0.70;0.70;;;;;;;18.86;50.29;96610.75;10363462;28;20212;-71
2022/09/02 11:14:36;;;;;;;12.65;1.20;;;;;;;18.01;52.86;96658.53;10367789;28;20291;-71
2022/09/02 11:19:45;;;;;;;0.55;0.50;;;;;;;19.04;49.02;96588.81;10390806;28;20193;-72
2022/09/02 11:25:14;;;;;;;1.23;0.50;;;;;;;19.03;48.79;96576.56;10412962;28;20203;-71
2022/09/02 11:30:19;;;;;;;1.80;0.60;;;;;;;18.45;49.33;96571.31;10403316;28;20213;-71
2022/09/02 11:35:25;;;;;;;4.03;0.57;;;;;;;20.03;50.05;96635.34;10408451;28;20209;-72
2022/09/02 11:40:29;;;;;;;2.55;0.70;;;;;;;20.60;47.75;96595.28;10410574;28;20562;-72
2022/09/02 11:45:48;;;;;;;1.05;0.60;;;;;;;20.74;44.13;96503.56;10398536;28;20372;-72
2022/09/02 11:51:15;;;;;;;2.25;0.90;;;;;;;20.38;45.33;96528.38;10408943;28;20196;-70
2022/09/02 11:56:18;;;;;;;0.95;0.50;;;;;;;19.06;48.62;96570.81;10396242;28;21042;-72
2022/09/02 12:01:27;;;;;;;1.30;0.70;;;;;;;18.89;47.71;96545.81;10390691;28;20820;-71
2022/09/02 12:06:28;;;;;;;0.60;0.60;;;;;;;19.17;48.73;96585.28;10408577;28;20240;-71
2022/09/02 12:11:41;;;;;;;0.75;0.50;;;;;;;20.16;47.76;96587.34;10408895;28;20284;-72
2022/09/02 12:17:02;;;;;;;0.47;0.47;;;;;;;20.27;46.81;96560.00;10390655;28;20272;-71
2022/09/02 12:22:15;;;;;;;0.60;0.50;;;;;;;20.65;47.36;96579.47;10391058;28;20611;-72
2022/09/02 12:27:30;;;;;;;2.60;0.70;;;;;;;19.90;45.17;96482.09;10408219;28;20252;-71
2022/09/02 12:32:47;;;;;;;1.20;1.20;;;;;;;20.55;47.65;96565.84;10407592;28;20720;-72
2022/09/02 12:38:18;;;;;;;0.82;0.75;;;;;;;20.13;46.71;96522.09;10408053;28;20212;-71
2022/09/02 12:43:25;;;;;;;2.70;0.57;;;;;;;21.20;43.17;96462.09;10388834;28;20555;-71
2022/09/02 12:48:35;;;;;;;1.30;0.57;;;;;;;20.64;45.13;96492.63;10390435;28;20231;-72
2022/09/02 12:53:43;;;;;;;1.55;0.63;;;;;;;20.69;46.80;96532.75;10406905;28;20291;-72
2022/09/02 12:58:46;;;;;;;0.47;0.47;;;;;;;21.08;46.63;96548.38;10406497;28;20639;-72
2022/09/02 13:03:56;;;;;;;0.85;0.60;;;;;;;20.25;44.85;96466.31;10388591;28;20983;-72
2022/09/02 13:09:24;;;;;;;0.70;0.60;;;;;;;19.98;49.61;96566.06;10388354;28;20224;-72
2022/09/02 13:14:50;;;;;;;1.40;0.40;;;;;;;19.84;47.25;96497.06;10405624;28;20230;-72
2022/09/02 13:20:09;;;;;;;0.60;0.60;;;;;;;21.21;42.68;96436.28;10389048;28;20203;-71
2022/09/02 13:25:35;;;;;;;1.90;0.50;;;;;;;19.52;46.73;96478.53;10406100;28;20929;-73
2022/09/02 13:31:01;;;;;;;0.95;0.63;;;;;;;20.12;47.07;96503.72;10389077;28;20196;-72
2022/09/02 13:36:01;;;;;;;0.45;0.45;;;;;;;22.96;40.59;96421.09;10387840;28;20205;-72
2022/09/02 13:41:02;;;;;;;0.57;0.57;;;;;;;22.21;41.17;96409.63;10430457;28;20196;-72
2022/09/02 13:46:02;;;;;;;0.77;0.50;;;;;;;21.72;44.66;96496.09;10446936;28;20227;-71
2022/09/02 13:51:11;;;;;;;0.65;0.65;;;;;;;21.28;46.44;96518.78;10409339;28;20197;-72
2022/09/02 13:56:13;;;;;;;1.10;0.75;;;;;;;20.19;49.43;96549.66;10387742;28;20229;-72
2022/09/02 14:01:23;;;;;;;1.50;0.70;;;;;;;19.63;49.06;96530.16;10400179;28;20560;-71
2022/09/02 14:06:35;;;;;;;0.52;0.52;;;;;;;20.06;49.50;96544.50;10414814;28;20248;-77
2022/09/02 14:11:42;;;;;;;1.88;0.70;;;;;;;19.84;50.66;96566.19;10420390;28;20300;-77
2022/09/02 14:16:42;;;;;;;0.70;0.60;;;;;;;19.89;51.27;96579.66;10397059;28;20799;-75
2022/09/02 14:21:46;;;;;;;0.50;0.50;;;;;;;20.08;51.22;96577.00;10401657;28;20265;-77
2022/09/02 14:26:49;;;;;;;0.95;0.85;;;;;;;20.05;49.08;96518.94;10395619;28;20576;-77
2022/09/02 14:32:12;;;;;;;0.95;0.70;;;;;;;19.81;50.26;96549.88;10412631;28;20216;-77
2022/09/02 14:37:27;;;;;;;2.45;1.10;;;;;;;19.93;48.61;96501.06;10419078;28;20232;-77
2022/09/02 14:42:27;;;;;;;1.92;0.93;;;;;;;19.41;50.29;96524.44;10412958;28;20197;-76
2022/09/02 14:47:28;;;;;;;1.38;0.82;;;;;;;21.06;49.48;96561.09;10393962;28;20216;-77
2022/09/02 14:52:35;;;;;;;1.75;0.70;;;;;;;21.77;45.90;96498.06;10400705;28;20216;-76
2022/09/02 14:57:37;;;;;;;2.80;1.13;;;;;;;21.57;46.20;96498.44;10392081;28;20231;-77
2022/09/02 15:02:40;;;;;;;0.90;0.68;;;;;;;20.70;49.36;96530.88;10411118;28;20192;-77
2022/09/02 15:07:40;;;;;;;0.93;0.65;;;;;;;20.74;49.10;96519.56;10393180;28;20216;-79
2022/09/02 15:12:51;;;;;;;2.35;0.77;;;;;;;24.10;43.22;96488.53;10407427;28;20716;-76
2022/09/02 15:17:53;;;;;;;0.77;0.77;;;;;;;23.24;43.32;96456.81;10406808;28;20274;-73
2022/09/02 15:22:53;;;;;;;1.73;0.88;;;;;;;20.74;48.62;96518.75;10410337;28;20188;-73
2022/09/02 15:27:53;;;;;;;1.17;0.80;;;;;;;19.87;53.35;96610.13;10408390;28;20787;-73
2022/09/02 15:32:54;;;;;;;0.82;0.77;;;;;;;19.29;51.79;96542.09;10409205;28;20199;-72
2022/09/02 15:37:54;;;;;;;1.55;0.65;;;;;;;19.08;54.19;96578.56;10398193;28;20220;-72
2022/09/02 15:42:56;;;;;;;2.03;0.70;;;;;;;18.92;52.88;96555.22;10368285;28;20239;-72
2022/09/02 15:47:57;;;;;;;4.93;0.90;;;;;;;18.76;55.76;96617.50;10368594;28;20225;-72
2022/09/02 15:52:58;;;;;;;3.75;0.88;;;;;;;18.60;58.83;96682.50;10368647;28;20189;-72
2022/09/02 15:57:59;;;;;;;3.35;0.80;;;;;;;18.57;54.88;96590.06;10367365;28;20312;-72
2022/09/02 16:03:00;;;;;;;1.08;0.85;;;;;;;18.46;58.54;96661.28;10382423;28;20754;-72
2022/09/02 16:08:00;;;;;;;2.17;0.77;;;;;;;18.64;56.33;96606.78;10391484;28;20228;-72
2022/09/02 16:13:02;;;;;;;2.55;0.80;;;;;;;18.06;58.17;96624.25;10408349;28;20649;-72
2022/09/02 16:18:02;;;;;;;2.72;0.80;;;;;;;18.00;60.07;96659.53;10408023;28;20720;-72
2022/09/02 16:23:02;;;;;;;1.75;0.88;;;;;;;17.77;59.54;96642.16;10408577;28;20192;-73
2022/09/02 16:28:03;;;;;;;3.72;2.70;;;;;;;18.18;58.90;96646.47;10406976;28;20247;-73
2022/09/02 16:33:03;;;;;;;2.30;1.20;;;;;;;18.63;59.40;96652.88;10409118;28;20188;-72
2022/09/02 16:38:04;;;;;;;2.28;0.90;;;;;;;19.85;55.59;96593.59;10407880;28;20300;-72
2022/09/02 16:43:04;;;;;;;4.65;1.17;;;;;;;19.49;56.82;96603.84;10410662;28;20197;-72
2022/09/02 16:48:04;;;;;;;1.30;0.82;;;;;;;19.26;55.75;96567.22;10406675;28;20303;-72
2022/09/02 16:53:05;;;;;;;2.67;0.90;;;;;;;18.89;58.30;96618.31;10407659;28;20181;-73
2022/09/02 16:58:05;;;;;;;1.13;0.65;;;;;;;18.40;60.51;96646.22;10428010;28;20224;-72
2022/09/02 17:03:08;;;;;;;6.45;0.98;;;;;;;18.09;60.39;96629.13;10450170;28;20195;-72
2022/09/02 17:08:08;;;;;;;1.85;0.85;;;;;;;17.55;60.76;96607.13;10408157;28;20299;-72
2022/09/02 17:13:08;;;;;;;0.65;0.65;;;;;;;17.19;62.57;96636.59;10424906;28;20188;-72
2022/09/02 17:18:09;;;;;;;0.80;0.80;;;;;;;16.65;66.80;96710.47;10421308;28;20188;-72
2022/09/02 17:23:10;;;;;;;3.60;1.20;;;;;;;16.57;68.50;96726.50;10404701;28;20279;-72
2022/09/02 17:28:11;;;;;;;1.70;1.52;;;;;;;16.28;71.85;96738.06;10404299;28;20212;-72
2022/09/02 17:33:11;;;;;;;5.25;1.50;;;;;;;15.84;74.02;96734.66;10404452;28;20192;-72
2022/09/02 17:38:12;;;;;;;28.27;14.98;;;;;;;15.40;77.18;96746.97;10403991;28;20343;-72
2022/09/02 17:43:12;;;;;;;121.13;76.95;;;;;;;14.93;81.18;96745.59;10409381;28;20210;-72
2022/09/02 17:48:12;;;;;;;21.70;15.77;;;;;;;14.33;84.99;96742.91;10406340;28;20323;-72
2022/09/02 17:53:13;;;;;;;32.60;20.98;;;;;;;14.24;89.44;96736.06;10406701;28;20208;-72
2022/09/02 17:58:17;;;;;;;33.40;18.95;;;;;;;13.88;92.48;96741.97;10406249;28;20240;-72
2022/09/02 18:04:00;;;;;;;8.13;2.70;;;;;;;13.51;95.68;96744.38;10408981;28;20291;-72
2022/09/02 18:09:01;;;;;;;4.78;1.60;;;;;;;13.31;98.00;96751.84;10364191;28;20228;-72
2022/09/02 18:14:31;;;;;;;2.83;1.50;;;;;;;13.28;100.00;96756.66;10398320;28;20188;-72
2022/09/02 18:19:56;;;;;;;2.85;1.98;;;;;;;13.18;100.00;96768.22;10378986;28;20207;-71
2022/09/02 18:25:15;;;;;;;5.30;2.15;;;;;;;13.03;100.00;96773.34;10394440;28;20188;-72
2022/09/02 18:30:28;;;;;;;3.85;2.00;;;;;;;13.08;100.00;96774.63;10411044;28;20193;-72
2022/09/02 18:36:15;;;;;;;4.10;1.92;;;;;;;12.96;100.00;96768.94;10392577;28;20265;-72
2022/09/02 18:41:37;;;;;;;5.55;1.90;;;;;;;12.95;100.00;96780.44;10338521;28;20208;-72
2022/09/02 18:46:49;;;;;;;2.67;2.25;;;;;;;12.93;100.00;96778.00;10394441;28;20232;-72
2022/09/02 18:51:52;;;;;;;2.35;2.10;;;;;;;12.82;100.00;96776.53;10394463;28;20263;-72
2022/09/02 18:56:56;;;;;;;5.05;2.20;;;;;;;12.79;100.00;96773.44;10394064;28;20233;-72
2022/09/02 19:02:00;;;;;;;2.92;1.60;;;;;;;12.64;100.00;96768.06;10412234;28;20201;-72
2022/09/02 19:12:19;;;;;;;2.83;1.50;;;;;;;12.44;100.00;96786.00;10411006;28;20196;-72
2022/09/02 19:17:20;;;;;;;4.22;2.10;;;;;;;12.43;100.00;96779.91;10410730;28;20189;-72
2022/09/02 19:22:25;;;;;;;2.00;1.75;;;;;;;12.41;100.00;96786.31;10411225;28;20200;-72
2022/09/02 19:27:36;;;;;;;1.80;1.50;;;;;;;12.31;100.00;96782.06;10410904;28;20254;-72
2022/09/02 19:32:38;;;;;;;3.00;1.73;;;;;;;12.27;100.00;96779.94;10410316;28;20189;-71
2022/09/02 19:37:38;;;;;;;4.22;2.38;;;;;;;12.15;100.00;96774.19;10410522;28;20219;-72
2022/09/02 19:42:39;;;;;;;3.45;2.03;;;;;;;12.12;100.00;96783.22;10409702;28;20219;-72
2022/09/02 19:47:39;;;;;;;3.83;1.90;;;;;;;11.99;100.00;96776.81;10406702;28;20244;-71
2022/09/02 19:52:43;;;;;;;4.60;2.30;;;;;;;11.90;100.00;96782.03;10409606;28;20283;-72
2022/09/02 19:57:43;;;;;;;2.58;1.88;;;;;;;11.75;100.00;96781.84;10387448;28;20221;-72
2022/09/02 20:02:44;;;;;;;1.90;1.80;;;;;;;11.61;100.00;96782.50;10407950;28;20598;-71
2022/09/02 20:07:44;;;;;;;3.60;1.65;;;;;;;11.43;100.00;96790.47;10408098;28;20315;-72
2022/09/02 20:12:45;;;;;;;4.50;2.03;;;;;;;11.27;100.00;96793.03;10407524;28;20188;-71
2022/09/02 20:17:45;;;;;;;3.05;1.60;;;;;;;11.12;100.00;96796.28;10408201;28;20196;-71
2022/09/02 20:22:46;;;;;;;6.37;2.03;;;;;;;10.89;100.00;96793.41;10408362;28;20712;-71
2022/09/02 20:28:04;;;;;;;1.70;1.50;;;;;;;10.68;100.00;96796.38;10387932;28;20220;-72
2022/09/02 20:33:13;;;;;;;3.10;2.10;;;;;;;10.52;100.00;96799.72;10391008;28;20218;-71
2022/09/02 20:38:50;;;;;;;4.10;1.90;;;;;;;10.36;100.00;96800.44;10407559;28;20564;-72
2022/09/02 20:44:27;;;;;;;6.47;2.00;;;;;;;10.27;100.00;96796.09;10404772;28;20192;-72
2022/09/02 20:49:47;;;;;;;2.17;1.97;;;;;;;10.03;100.00;96799.31;10390012;28;20655;-72
2022/09/02 20:54:54;;;;;;;2.87;1.80;;;;;;;9.95;100.00;96800.91;10408552;28;20192;-72
2022/09/02 21:00:04;;;;;;;4.97;2.50;;;;;;;9.76;100.00;96803.69;10374805;28;20224;-72
2022/09/02 21:05:14;;;;;;;3.10;2.00;;;;;;;9.68;100.00;96800.97;10407735;28;20672;-72
2022/09/02 21:10:19;;;;;;;2.40;1.60;;;;;;;9.60;100.00;96802.56;10391207;28;20224;-72
2022/09/02 21:15:27;;;;;;;3.07;1.93;;;;;;;9.45;100.00;96806.66;10390474;28;20207;-72
2022/09/02 21:20:35;;;;;;;4.73;1.83;;;;;;;9.41;100.00;96800.88;10408436;28;20189;-72
2022/09/02 21:26:02;;;;;;;4.43;1.80;;;;;;;9.38;100.00;96806.38;10390381;28;20199;-72
2022/09/02 21:31:29;;;;;;;2.63;1.80;;;;;;;9.34;100.00;96807.66;10380596;28;20215;-72
2022/09/02 21:36:31;;;;;;;4.07;1.70;;;;;;;9.23;100.00;96807.84;10410481;28;20248;-72
2022/09/02 21:41:34;;;;;;;2.40;1.60;;;;;;;9.27;100.00;96804.81;10381194;28;20200;-72
2022/09/02 21:46:59;;;;;;;2.13;1.53;;;;;;;9.27;100.00;96798.75;10398140;28;20224;-72
2022/09/02 21:52:21;;;;;;;4.40;1.77;;;;;;;9.23;100.00;96803.47;10400541;28;20801;-72
2022/09/02 21:57:55;;;;;;;2.03;1.43;;;;;;;9.12;100.00;96795.00;10415413;28;20258;-71
2022/09/02 22:03:06;;;;;;;1.60;1.50;;;;;;;9.10;100.00;96798.56;10382144;28;20683;-72
2022/09/02 22:08:43;;;;;;;4.70;1.87;;;;;;;9.12;100.00;96797.59;10397530;28;20216;-72
2022/09/02 22:13:44;;;;;;;11.17;2.37;;;;;;;9.25;100.00;96798.09;10415238;28;20200;-72
2022/09/02 22:18:53;;;;;;;2.47;1.83;;;;;;;9.17;100.00;96787.53;10414955;28;20641;-72
2022/09/02 22:23:54;;;;;;;2.23;1.67;;;;;;;9.18;100.00;96778.72;10397348;28;20228;-72
2022/09/02 22:29:00;;;;;;;3.13;1.50;;;;;;;9.26;100.00;96777.03;10415040;28;20227;-72
2022/09/02 22:34:03;;;;;;;2.27;1.40;;;;;;;9.17;100.00;96772.66;10396806;28;20201;-72
2022/09/02 22:39:04;;;;;;;4.87;1.53;;;;;;;9.14;100.00;96769.53;10396561;28;20193;-73
2022/09/02 22:44:21;;;;;;;6.03;1.70;;;;;;;9.04;100.00;96772.19;10396410;28;20185;-72
2022/09/02 22:54:42;;;;;;;5.73;1.50;;;;;;;8.93;100.00;96771.41;10398617;28;20235;-72
2022/09/02 22:59:54;;;;;;;2.07;1.60;;;;;;;8.96;100.00;96765.09;10413239;28;20236;-72
2022/09/02 23:05:46;;;;;;;2.13;1.30;;;;;;;8.95;100.00;96770.44;10395968;28;20688;-72
2022/09/02 23:11:05;;;;;;;1.73;1.40;;;;;;;8.95;100.00;96762.63;10395608;28;20204;-72
2022/09/02 23:16:27;;;;;;;4.63;1.80;;;;;;;8.92;100.00;96763.72;10395071;28;20211;-72
2022/09/02 23:21:45;;;;;;;1.77;1.67;;;;;;;8.84;100.00;96761.00;10412740;28;20672;-72
2022/09/02 23:27:06;;;;;;;1.83;1.73;;;;;;;8.82;100.00;96755.94;10394762;28;20216;-72
2022/09/02 23:32:22;;;;;;;3.33;1.40;;;;;;;8.74;100.00;96753.19;10395507;28;20203;-72
2022/09/02 23:37:48;;;;;;;1.70;1.60;;;;;;;8.71;100.00;96761.31;10412042;28;20268;-72
2022/09/02 23:42:49;;;;;;;2.57;1.63;;;;;;;8.50;100.00;96766.75;10394527;28;20669;-72
2022/09/02 23:48:13;;;;;;;1.90;1.63;;;;;;;8.57;100.00;96752.16;10393641;28;20212;-72
2022/09/02 23:53:40;;;;;;;2.33;1.43;;;;;;;8.62;100.00;96741.28;10411688;28;20195;-72
2022/09/02 23:59:12;;;;;;;1.93;1.67;;;;;;;8.66;100.00;96745.28;10380660;28;20234;-73
